sensor_id;sensor_type;location;lat;lon;timestamp;P1;durP1;ratioP1;P2;durP2;ratioP2
10603;SDS011;5349;41.554;23.274;2022-12-18T00:01:49;23.60;;;16.08;;
10603;SDS011;5349;41.554;23.274;2022-12-18T00:04:18;29.73;;;19.52;;
10603;SDS011;5349;41.554;23.274;2022-12-18T00:06:47;27.33;;;19.08;;
10603;SDS011;5349;41.554;23.274;2022-12-18T00:09:14;23.48;;;17.15;;
10603;SDS011;5349;41.554;23.274;2022-12-18T00:11:40;23.17;;;15.93;;
10603;SDS011;5349;41.554;23.274;2022-12-18T00:14:08;25.20;;;16.95;;
10603;SDS011;5349;41.554;23.274;2022-12-18T00:16:36;20.95;;;15.70;;
10603;SDS011;5349;41.554;23.274;2022-12-18T00:19:05;24.80;;;14.88;;
10603;SDS011;5349;41.554;23.274;2022-12-18T00:21:33;18.00;;;13.60;;
10603;SDS011;5349;41.554;23.274;2022-12-18T00:24:00;21.33;;;13.23;;
10603;SDS011;5349;41.554;23.274;2022-12-18T00:26:28;19.60;;;13.07;;
10603;SDS011;5349;41.554;23.274;2022-12-18T00:28:58;17.90;;;13.23;;
10603;SDS011;5349;41.554;23.274;2022-12-18T00:31:25;17.05;;;13.07;;
10603;SDS011;5349;41.554;23.274;2022-12-18T00:33:53;20.83;;;12.48;;
10603;SDS011;5349;41.554;23.274;2022-12-18T00:36:22;16.50;;;11.93;;
10603;SDS011;5349;41.554;23.274;2022-12-18T00:38:51;21.45;;;12.38;;
10603;SDS011;5349;41.554;23.274;2022-12-18T00:41:19;14.40;;;10.75;;
10603;SDS011;5349;41.554;23.274;2022-12-18T00:44:00;16.17;;;11.15;;
10603;SDS011;5349;41.554;23.274;2022-12-18T00:46:27;18.58;;;11.73;;
10603;SDS011;5349;41.554;23.274;2022-12-18T00:48:54;20.27;;;12.18;;
10603;SDS011;5349;41.554;23.274;2022-12-18T00:51:22;21.07;;;12.57;;
10603;SDS011;5349;41.554;23.274;2022-12-18T00:53:49;18.67;;;13.00;;
10603;SDS011;5349;41.554;23.274;2022-12-18T00:56:16;19.35;;;12.00;;
10603;SDS011;5349;41.554;23.274;2022-12-18T00:58:43;18.52;;;11.20;;
10603;SDS011;5349;41.554;23.274;2022-12-18T01:01:10;17.30;;;9.80;;
10603;SDS011;5349;41.554;23.274;2022-12-18T01:03:36;16.25;;;8.82;;
10603;SDS011;5349;41.554;23.274;2022-12-18T01:06:05;13.43;;;9.55;;
10603;SDS011;5349;41.554;23.274;2022-12-18T01:08:34;12.43;;;8.40;;
10603;SDS011;5349;41.554;23.274;2022-12-18T01:11:01;12.98;;;9.55;;
10603;SDS011;5349;41.554;23.274;2022-12-18T01:13:33;16.13;;;9.20;;
10603;SDS011;5349;41.554;23.274;2022-12-18T01:16:00;13.65;;;9.10;;
10603;SDS011;5349;41.554;23.274;2022-12-18T01:18:26;13.50;;;8.63;;
10603;SDS011;5349;41.554;23.274;2022-12-18T01:20:53;13.30;;;8.70;;
10603;SDS011;5349;41.554;23.274;2022-12-18T01:23:20;14.52;;;8.82;;
10603;SDS011;5349;41.554;23.274;2022-12-18T01:25:48;14.88;;;9.25;;
10603;SDS011;5349;41.554;23.274;2022-12-18T01:28:15;18.55;;;9.82;;
10603;SDS011;5349;41.554;23.274;2022-12-18T01:30:42;16.40;;;10.90;;
10603;SDS011;5349;41.554;23.274;2022-12-18T01:33:09;15.82;;;10.50;;
10603;SDS011;5349;41.554;23.274;2022-12-18T01:35:39;17.88;;;12.32;;
10603;SDS011;5349;41.554;23.274;2022-12-18T01:38:07;16.25;;;10.02;;
10603;SDS011;5349;41.554;23.274;2022-12-18T01:40:34;17.10;;;11.10;;
10603;SDS011;5349;41.554;23.274;2022-12-18T01:43:02;23.58;;;14.90;;
10603;SDS011;5349;41.554;23.274;2022-12-18T01:45:30;26.65;;;16.48;;
10603;SDS011;5349;41.554;23.274;2022-12-18T01:47:59;21.65;;;14.07;;
10603;SDS011;5349;41.554;23.274;2022-12-18T01:50:29;22.38;;;16.10;;
10603;SDS011;5349;41.554;23.274;2022-12-18T01:53:00;13.43;;;10.30;;
10603;SDS011;5349;41.554;23.274;2022-12-18T01:55:32;16.30;;;9.85;;
10603;SDS011;5349;41.554;23.274;2022-12-18T01:58:04;13.98;;;10.20;;
10603;SDS011;5349;41.554;23.274;2022-12-18T02:00:31;17.02;;;10.57;;
10603;SDS011;5349;41.554;23.274;2022-12-18T02:02:58;14.05;;;10.55;;
10603;SDS011;5349;41.554;23.274;2022-12-18T02:05:27;18.98;;;10.68;;
10603;SDS011;5349;41.554;23.274;2022-12-18T02:08:07;16.80;;;10.95;;
10603;SDS011;5349;41.554;23.274;2022-12-18T02:10:39;13.02;;;9.43;;
10603;SDS011;5349;41.554;23.274;2022-12-18T02:13:14;17.15;;;11.07;;
10603;SDS011;5349;41.554;23.274;2022-12-18T02:15:49;17.25;;;11.88;;
10603;SDS011;5349;41.554;23.274;2022-12-18T02:18:23;26.90;;;12.48;;
10603;SDS011;5349;41.554;23.274;2022-12-18T02:20:55;20.98;;;12.02;;
10603;SDS011;5349;41.554;23.274;2022-12-18T02:23:33;274.45;;;20.13;;
10603;SDS011;5349;41.554;23.274;2022-12-18T02:26:19;473.33;;;24.60;;
10603;SDS011;5349;41.554;23.274;2022-12-18T02:28:53;288.42;;;17.83;;
10603;SDS011;5349;41.554;23.274;2022-12-18T02:31:24;97.67;;;15.10;;
10603;SDS011;5349;41.554;23.274;2022-12-18T02:33:56;18.10;;;13.43;;
10603;SDS011;5349;41.554;23.274;2022-12-18T02:36:26;23.90;;;14.00;;
10603;SDS011;5349;41.554;23.274;2022-12-18T02:38:55;19.83;;;13.52;;
10603;SDS011;5349;41.554;23.274;2022-12-18T02:41:26;23.20;;;14.02;;
10603;SDS011;5349;41.554;23.274;2022-12-18T02:43:55;19.08;;;12.55;;
10603;SDS011;5349;41.554;23.274;2022-12-18T02:46:25;18.60;;;12.82;;
10603;SDS011;5349;41.554;23.274;2022-12-18T02:48:57;18.30;;;12.88;;
10603;SDS011;5349;41.554;23.274;2022-12-18T02:51:38;19.63;;;12.65;;
10603;SDS011;5349;41.554;23.274;2022-12-18T02:54:15;17.90;;;13.07;;
10603;SDS011;5349;41.554;23.274;2022-12-18T02:56:51;18.30;;;11.30;;
10603;SDS011;5349;41.554;23.274;2022-12-18T02:59:21;17.95;;;12.55;;
10603;SDS011;5349;41.554;23.274;2022-12-18T03:01:57;21.52;;;14.30;;
10603;SDS011;5349;41.554;23.274;2022-12-18T03:04:29;18.43;;;12.93;;
10603;SDS011;5349;41.554;23.274;2022-12-18T03:07:05;22.10;;;13.47;;
10603;SDS011;5349;41.554;23.274;2022-12-18T03:09:38;18.67;;;12.90;;
10603;SDS011;5349;41.554;23.274;2022-12-18T03:12:12;22.00;;;13.53;;
10603;SDS011;5349;41.554;23.274;2022-12-18T03:14:50;18.67;;;11.70;;
10603;SDS011;5349;41.554;23.274;2022-12-18T03:17:20;20.63;;;12.97;;
10603;SDS011;5349;41.554;23.274;2022-12-18T03:19:51;22.30;;;13.67;;
10603;SDS011;5349;41.554;23.274;2022-12-18T03:22:20;20.90;;;13.33;;
10603;SDS011;5349;41.554;23.274;2022-12-18T03:24:49;21.67;;;12.75;;
10603;SDS011;5349;41.554;23.274;2022-12-18T03:27:18;18.70;;;11.93;;
10603;SDS011;5349;41.554;23.274;2022-12-18T03:29:48;17.33;;;12.67;;
10603;SDS011;5349;41.554;23.274;2022-12-18T03:32:23;20.00;;;13.15;;
10603;SDS011;5349;41.554;23.274;2022-12-18T03:34:54;18.20;;;13.00;;
10603;SDS011;5349;41.554;23.274;2022-12-18T03:37:25;16.67;;;11.25;;
10603;SDS011;5349;41.554;23.274;2022-12-18T03:39:52;19.17;;;13.00;;
10603;SDS011;5349;41.554;23.274;2022-12-18T03:42:21;16.98;;;12.95;;
10603;SDS011;5349;41.554;23.274;2022-12-18T03:44:56;17.77;;;12.73;;
10603;SDS011;5349;41.554;23.274;2022-12-18T03:47:29;22.85;;;12.50;;
10603;SDS011;5349;41.554;23.274;2022-12-18T03:50:03;18.40;;;13.20;;
10603;SDS011;5349;41.554;23.274;2022-12-18T03:52:37;21.38;;;13.80;;
10603;SDS011;5349;41.554;23.274;2022-12-18T03:55:08;22.43;;;14.30;;
10603;SDS011;5349;41.554;23.274;2022-12-18T03:57:37;21.83;;;13.70;;
10603;SDS011;5349;41.554;23.274;2022-12-18T04:00:06;18.83;;;13.63;;
10603;SDS011;5349;41.554;23.274;2022-12-18T04:02:35;17.00;;;12.53;;
10603;SDS011;5349;41.554;23.274;2022-12-18T04:05:06;18.37;;;12.17;;
10603;SDS011;5349;41.554;23.274;2022-12-18T04:07:34;17.83;;;12.20;;
10603;SDS011;5349;41.554;23.274;2022-12-18T04:10:02;17.47;;;11.37;;
10603;SDS011;5349;41.554;23.274;2022-12-18T04:12:32;21.00;;;11.90;;
10603;SDS011;5349;41.554;23.274;2022-12-18T04:15:00;18.77;;;12.53;;
10603;SDS011;5349;41.554;23.274;2022-12-18T04:17:27;18.47;;;12.00;;
10603;SDS011;5349;41.554;23.274;2022-12-18T04:19:54;19.17;;;12.77;;
10603;SDS011;5349;41.554;23.274;2022-12-18T04:22:21;19.67;;;13.00;;
10603;SDS011;5349;41.554;23.274;2022-12-18T04:24:48;18.77;;;13.13;;
10603;SDS011;5349;41.554;23.274;2022-12-18T04:27:14;17.67;;;13.07;;
10603;SDS011;5349;41.554;23.274;2022-12-18T04:29:41;17.73;;;12.57;;
10603;SDS011;5349;41.554;23.274;2022-12-18T04:32:10;17.60;;;13.13;;
10603;SDS011;5349;41.554;23.274;2022-12-18T04:34:36;19.53;;;13.47;;
10603;SDS011;5349;41.554;23.274;2022-12-18T04:37:03;17.77;;;12.63;;
10603;SDS011;5349;41.554;23.274;2022-12-18T04:39:30;17.30;;;12.03;;
10603;SDS011;5349;41.554;23.274;2022-12-18T04:42:00;17.37;;;10.67;;
10603;SDS011;5349;41.554;23.274;2022-12-18T04:44:27;19.23;;;11.77;;
10603;SDS011;5349;41.554;23.274;2022-12-18T04:46:53;16.80;;;11.53;;
10603;SDS011;5349;41.554;23.274;2022-12-18T04:49:22;16.00;;;10.93;;
10603;SDS011;5349;41.554;23.274;2022-12-18T04:51:49;13.67;;;9.60;;
10603;SDS011;5349;41.554;23.274;2022-12-18T04:54:19;14.67;;;10.93;;
10603;SDS011;5349;41.554;23.274;2022-12-18T04:56:46;15.27;;;10.57;;
10603;SDS011;5349;41.554;23.274;2022-12-18T04:59:13;21.47;;;10.97;;
10603;SDS011;5349;41.554;23.274;2022-12-18T05:01:40;16.60;;;10.90;;
10603;SDS011;5349;41.554;23.274;2022-12-18T05:04:07;13.87;;;10.13;;
10603;SDS011;5349;41.554;23.274;2022-12-18T05:06:35;18.57;;;11.73;;
10603;SDS011;5349;41.554;23.274;2022-12-18T05:09:02;18.60;;;11.27;;
10603;SDS011;5349;41.554;23.274;2022-12-18T05:11:29;21.08;;;11.52;;
10603;SDS011;5349;41.554;23.274;2022-12-18T05:13:55;15.57;;;10.17;;
10603;SDS011;5349;41.554;23.274;2022-12-18T05:16:22;19.67;;;10.50;;
10603;SDS011;5349;41.554;23.274;2022-12-18T05:18:49;18.13;;;10.50;;
10603;SDS011;5349;41.554;23.274;2022-12-18T05:21:16;17.17;;;10.48;;
10603;SDS011;5349;41.554;23.274;2022-12-18T05:23:44;17.53;;;10.60;;
10603;SDS011;5349;41.554;23.274;2022-12-18T05:26:14;14.70;;;9.53;;
10603;SDS011;5349;41.554;23.274;2022-12-18T05:28:42;14.17;;;9.43;;
10603;SDS011;5349;41.554;23.274;2022-12-18T05:31:09;15.90;;;10.93;;
10603;SDS011;5349;41.554;23.274;2022-12-18T05:33:36;17.30;;;10.37;;
10603;SDS011;5349;41.554;23.274;2022-12-18T05:36:05;14.43;;;10.00;;
10603;SDS011;5349;41.554;23.274;2022-12-18T05:38:34;14.30;;;9.37;;
10603;SDS011;5349;41.554;23.274;2022-12-18T05:41:04;17.43;;;9.10;;
10603;SDS011;5349;41.554;23.274;2022-12-18T05:43:33;14.57;;;9.43;;
10603;SDS011;5349;41.554;23.274;2022-12-18T05:46:02;13.30;;;9.27;;
10603;SDS011;5349;41.554;23.274;2022-12-18T05:48:30;13.43;;;9.03;;
10603;SDS011;5349;41.554;23.274;2022-12-18T05:51:02;16.00;;;9.23;;
10603;SDS011;5349;41.554;23.274;2022-12-18T05:53:30;18.20;;;10.30;;
10603;SDS011;5349;41.554;23.274;2022-12-18T05:55:59;19.37;;;10.93;;
10603;SDS011;5349;41.554;23.274;2022-12-18T05:58:27;17.90;;;10.10;;
10603;SDS011;5349;41.554;23.274;2022-12-18T06:00:54;15.83;;;10.23;;
10603;SDS011;5349;41.554;23.274;2022-12-18T06:03:21;17.77;;;11.30;;
10603;SDS011;5349;41.554;23.274;2022-12-18T06:05:48;15.20;;;9.57;;
10603;SDS011;5349;41.554;23.274;2022-12-18T06:08:15;15.43;;;10.30;;
10603;SDS011;5349;41.554;23.274;2022-12-18T06:10:42;14.17;;;10.07;;
10603;SDS011;5349;41.554;23.274;2022-12-18T06:13:16;12.93;;;9.13;;
10603;SDS011;5349;41.554;23.274;2022-12-18T06:15:44;17.40;;;11.80;;
10603;SDS011;5349;41.554;23.274;2022-12-18T06:18:11;12.90;;;7.77;;
10603;SDS011;5349;41.554;23.274;2022-12-18T06:20:38;17.50;;;10.70;;
10603;SDS011;5349;41.554;23.274;2022-12-18T06:23:06;21.70;;;12.50;;
10603;SDS011;5349;41.554;23.274;2022-12-18T06:25:33;15.50;;;9.80;;
10603;SDS011;5349;41.554;23.274;2022-12-18T06:28:03;18.33;;;9.97;;
10603;SDS011;5349;41.554;23.274;2022-12-18T06:30:30;12.83;;;9.13;;
10603;SDS011;5349;41.554;23.274;2022-12-18T06:32:58;13.60;;;8.80;;
10603;SDS011;5349;41.554;23.274;2022-12-18T06:35:25;15.50;;;8.63;;
10603;SDS011;5349;41.554;23.274;2022-12-18T06:37:52;14.10;;;10.00;;
10603;SDS011;5349;41.554;23.274;2022-12-18T06:40:19;10.53;;;6.30;;
10603;SDS011;5349;41.554;23.274;2022-12-18T06:42:46;13.67;;;8.47;;
10603;SDS011;5349;41.554;23.274;2022-12-18T06:45:15;15.17;;;7.40;;
10603;SDS011;5349;41.554;23.274;2022-12-18T06:47:42;10.70;;;7.93;;
10603;SDS011;5349;41.554;23.274;2022-12-18T06:50:11;9.27;;;6.07;;
10603;SDS011;5349;41.554;23.274;2022-12-18T06:52:38;9.07;;;6.70;;
10603;SDS011;5349;41.554;23.274;2022-12-18T06:55:10;11.67;;;8.03;;
10603;SDS011;5349;41.554;23.274;2022-12-18T06:57:38;13.03;;;9.03;;
10603;SDS011;5349;41.554;23.274;2022-12-18T07:00:05;11.83;;;8.17;;
10603;SDS011;5349;41.554;23.274;2022-12-18T07:02:33;16.43;;;11.43;;
10603;SDS011;5349;41.554;23.274;2022-12-18T07:05:00;11.37;;;7.90;;
10603;SDS011;5349;41.554;23.274;2022-12-18T07:07:28;8.10;;;6.60;;
10603;SDS011;5349;41.554;23.274;2022-12-18T07:09:55;10.77;;;6.73;;
10603;SDS011;5349;41.554;23.274;2022-12-18T07:12:22;12.27;;;7.37;;
10603;SDS011;5349;41.554;23.274;2022-12-18T07:14:49;13.30;;;8.67;;
10603;SDS011;5349;41.554;23.274;2022-12-18T07:17:15;6.27;;;3.20;;
10603;SDS011;5349;41.554;23.274;2022-12-18T07:19:42;10.30;;;7.00;;
10603;SDS011;5349;41.554;23.274;2022-12-18T07:22:09;12.40;;;7.57;;
10603;SDS011;5349;41.554;23.274;2022-12-18T07:24:37;7.73;;;5.37;;
10603;SDS011;5349;41.554;23.274;2022-12-18T07:27:04;11.20;;;5.77;;
10603;SDS011;5349;41.554;23.274;2022-12-18T07:29:31;12.73;;;8.70;;
10603;SDS011;5349;41.554;23.274;2022-12-18T07:31:58;11.03;;;8.50;;
10603;SDS011;5349;41.554;23.274;2022-12-18T07:34:25;16.60;;;12.23;;
10603;SDS011;5349;41.554;23.274;2022-12-18T07:36:52;15.93;;;11.40;;
10603;SDS011;5349;41.554;23.274;2022-12-18T07:39:18;26.23;;;19.30;;
10603;SDS011;5349;41.554;23.274;2022-12-18T07:41:47;14.23;;;9.83;;
10603;SDS011;5349;41.554;23.274;2022-12-18T07:44:34;8.57;;;6.47;;
10603;SDS011;5349;41.554;23.274;2022-12-18T07:47:00;8.97;;;4.37;;
10603;SDS011;5349;41.554;23.274;2022-12-18T07:49:27;9.17;;;7.10;;
10603;SDS011;5349;41.554;23.274;2022-12-18T07:51:55;12.57;;;7.93;;
10603;SDS011;5349;41.554;23.274;2022-12-18T07:54:22;10.10;;;6.23;;
10603;SDS011;5349;41.554;23.274;2022-12-18T07:56:50;10.73;;;7.00;;
10603;SDS011;5349;41.554;23.274;2022-12-18T07:59:18;9.47;;;6.03;;
10603;SDS011;5349;41.554;23.274;2022-12-18T08:01:45;11.67;;;8.20;;
10603;SDS011;5349;41.554;23.274;2022-12-18T08:04:11;10.33;;;7.60;;
10603;SDS011;5349;41.554;23.274;2022-12-18T08:06:38;11.07;;;7.30;;
10603;SDS011;5349;41.554;23.274;2022-12-18T08:09:05;9.50;;;7.17;;
10603;SDS011;5349;41.554;23.274;2022-12-18T08:11:33;12.00;;;6.80;;
10603;SDS011;5349;41.554;23.274;2022-12-18T08:14:02;5.47;;;4.93;;
10603;SDS011;5349;41.554;23.274;2022-12-18T08:16:28;10.73;;;7.23;;
10603;SDS011;5349;41.554;23.274;2022-12-18T08:18:56;7.63;;;6.37;;
10603;SDS011;5349;41.554;23.274;2022-12-18T08:21:23;9.63;;;6.67;;
10603;SDS011;5349;41.554;23.274;2022-12-18T08:23:52;10.57;;;6.83;;
10603;SDS011;5349;41.554;23.274;2022-12-18T08:26:20;15.03;;;9.73;;
10603;SDS011;5349;41.554;23.274;2022-12-18T08:28:48;7.27;;;5.50;;
10603;SDS011;5349;41.554;23.274;2022-12-18T08:31:17;15.13;;;9.43;;
10603;SDS011;5349;41.554;23.274;2022-12-18T08:33:44;7.18;;;5.68;;
10603;SDS011;5349;41.554;23.274;2022-12-18T08:36:11;8.50;;;5.63;;
10603;SDS011;5349;41.554;23.274;2022-12-18T08:38:38;11.47;;;8.00;;
10603;SDS011;5349;41.554;23.274;2022-12-18T08:41:05;8.07;;;5.30;;
10603;SDS011;5349;41.554;23.274;2022-12-18T08:43:33;4.33;;;3.93;;
10603;SDS011;5349;41.554;23.274;2022-12-18T08:46:19;9.03;;;5.77;;
10603;SDS011;5349;41.554;23.274;2022-12-18T08:48:47;7.17;;;4.17;;
10603;SDS011;5349;41.554;23.274;2022-12-18T08:51:16;6.43;;;4.30;;
10603;SDS011;5349;41.554;23.274;2022-12-18T08:53:44;8.83;;;5.93;;
10603;SDS011;5349;41.554;23.274;2022-12-18T08:56:11;5.90;;;3.93;;
10603;SDS011;5349;41.554;23.274;2022-12-18T08:58:38;7.10;;;4.73;;
10603;SDS011;5349;41.554;23.274;2022-12-18T09:01:09;10.03;;;7.23;;
10603;SDS011;5349;41.554;23.274;2022-12-18T09:03:38;13.97;;;9.30;;
10603;SDS011;5349;41.554;23.274;2022-12-18T09:06:06;8.37;;;6.00;;
10603;SDS011;5349;41.554;23.274;2022-12-18T09:08:36;6.67;;;5.20;;
10603;SDS011;5349;41.554;23.274;2022-12-18T09:11:03;7.00;;;4.50;;
10603;SDS011;5349;41.554;23.274;2022-12-18T09:13:31;8.90;;;5.90;;
10603;SDS011;5349;41.554;23.274;2022-12-18T09:15:57;16.33;;;11.27;;
10603;SDS011;5349;41.554;23.274;2022-12-18T09:18:24;6.70;;;5.33;;
10603;SDS011;5349;41.554;23.274;2022-12-18T09:20:52;7.53;;;5.87;;
10603;SDS011;5349;41.554;23.274;2022-12-18T09:23:19;7.60;;;5.73;;
10603;SDS011;5349;41.554;23.274;2022-12-18T09:25:47;7.03;;;5.10;;
10603;SDS011;5349;41.554;23.274;2022-12-18T09:28:14;7.93;;;6.40;;
10603;SDS011;5349;41.554;23.274;2022-12-18T09:30:43;10.43;;;7.97;;
10603;SDS011;5349;41.554;23.274;2022-12-18T09:33:11;8.97;;;6.33;;
10603;SDS011;5349;41.554;23.274;2022-12-18T09:35:38;8.87;;;5.80;;
10603;SDS011;5349;41.554;23.274;2022-12-18T09:38:08;10.40;;;6.80;;
10603;SDS011;5349;41.554;23.274;2022-12-18T09:40:40;12.90;;;8.27;;
10603;SDS011;5349;41.554;23.274;2022-12-18T09:43:10;6.93;;;4.77;;
10603;SDS011;5349;41.554;23.274;2022-12-18T09:45:44;9.17;;;6.27;;
10603;SDS011;5349;41.554;23.274;2022-12-18T09:48:15;10.43;;;6.50;;
10603;SDS011;5349;41.554;23.274;2022-12-18T09:50:47;10.40;;;6.20;;
10603;SDS011;5349;41.554;23.274;2022-12-18T09:53:19;12.70;;;9.03;;
10603;SDS011;5349;41.554;23.274;2022-12-18T09:55:49;10.77;;;6.30;;
10603;SDS011;5349;41.554;23.274;2022-12-18T09:58:20;10.57;;;8.00;;
10603;SDS011;5349;41.554;23.274;2022-12-18T10:00:53;13.57;;;7.50;;
10603;SDS011;5349;41.554;23.274;2022-12-18T13:22:43;15.20;;;9.30;;
10603;SDS011;5349;41.554;23.274;2022-12-18T13:25:31;15.77;;;9.88;;
10603;SDS011;5349;41.554;23.274;2022-12-18T13:28:05;12.20;;;8.67;;
10603;SDS011;5349;41.554;23.274;2022-12-18T13:30:44;13.10;;;8.52;;
10603;SDS011;5349;41.554;23.274;2022-12-18T13:33:38;11.52;;;8.10;;
10603;SDS011;5349;41.554;23.274;2022-12-18T13:36:12;10.27;;;8.07;;
10603;SDS011;5349;41.554;23.274;2022-12-18T13:45:37;10.88;;;7.65;;
10603;SDS011;5349;41.554;23.274;2022-12-18T13:48:14;15.07;;;10.83;;
10603;SDS011;5349;41.554;23.274;2022-12-18T13:50:51;20.15;;;13.25;;
10603;SDS011;5349;41.554;23.274;2022-12-18T13:53:23;17.15;;;11.45;;
10603;SDS011;5349;41.554;23.274;2022-12-18T13:55:54;15.80;;;9.77;;
10603;SDS011;5349;41.554;23.274;2022-12-18T13:58:21;13.53;;;9.17;;
10603;SDS011;5349;41.554;23.274;2022-12-18T14:00:48;13.40;;;8.75;;
10603;SDS011;5349;41.554;23.274;2022-12-18T14:03:16;10.25;;;7.97;;
10603;SDS011;5349;41.554;23.274;2022-12-18T14:05:45;13.90;;;9.70;;
10603;SDS011;5349;41.554;23.274;2022-12-18T14:08:17;11.80;;;8.55;;
10603;SDS011;5349;41.554;23.274;2022-12-18T14:10:45;10.30;;;7.83;;
10603;SDS011;5349;41.554;23.274;2022-12-18T14:13:18;11.10;;;8.23;;
10603;SDS011;5349;41.554;23.274;2022-12-18T14:15:49;11.23;;;8.50;;
10603;SDS011;5349;41.554;23.274;2022-12-18T14:18:19;12.60;;;8.07;;
10603;SDS011;5349;41.554;23.274;2022-12-18T14:20:49;13.83;;;9.00;;
10603;SDS011;5349;41.554;23.274;2022-12-18T14:23:26;15.17;;;9.23;;
10603;SDS011;5349;41.554;23.274;2022-12-18T14:25:55;7.28;;;5.43;;
10603;SDS011;5349;41.554;23.274;2022-12-18T14:28:23;15.10;;;9.73;;
10603;SDS011;5349;41.554;23.274;2022-12-18T14:30:51;14.20;;;9.87;;
10603;SDS011;5349;41.554;23.274;2022-12-18T14:33:21;14.77;;;9.07;;
10603;SDS011;5349;41.554;23.274;2022-12-18T14:35:53;17.10;;;11.00;;
10603;SDS011;5349;41.554;23.274;2022-12-18T14:38:22;15.77;;;10.00;;
10603;SDS011;5349;41.554;23.274;2022-12-18T14:40:54;15.20;;;10.47;;
10603;SDS011;5349;41.554;23.274;2022-12-18T14:43:27;16.63;;;10.13;;
10603;SDS011;5349;41.554;23.274;2022-12-18T14:45:56;7.67;;;5.20;;
10603;SDS011;5349;41.554;23.274;2022-12-18T14:48:31;16.43;;;10.47;;
